createdAt,value
2023-04-15T00:01:43.295Z,81.53
2023-04-15T00:06:53.058Z,81.61
2023-04-15T00:11:54.862Z,80.93
2023-04-15T00:16:57.403Z,80.50
2023-04-15T00:22:00.757Z,80.59
2023-04-15T00:27:02.459Z,80.66
2023-04-15T00:32:04.452Z,80.87
2023-04-15T00:37:06.170Z,81.08
2023-04-15T00:42:07.850Z,81.31
2023-04-15T00:47:11.298Z,80.67
2023-04-15T00:52:13.257Z,80.96
2023-04-15T00:57:14.874Z,81.19
2023-04-15T01:02:16.903Z,81.12
2023-04-15T01:07:19.044Z,80.95
2023-04-15T01:12:21.142Z,80.29
2023-04-15T01:17:24.825Z,79.09
2023-04-15T01:22:27.800Z,78.55
2023-04-15T01:27:30.251Z,78.10
2023-04-15T01:32:32.127Z,77.72
2023-04-15T01:37:34.197Z,77.42
2023-04-15T01:42:38.918Z,77.11
2023-04-15T01:47:40.610Z,76.76
2023-04-15T01:52:44.972Z,76.72
2023-04-15T01:57:47.395Z,76.25
2023-04-15T02:02:49.538Z,76.34
2023-04-15T02:07:52.206Z,75.94
2023-04-15T02:12:54.269Z,76.00
2023-04-15T02:17:57.014Z,76.49
2023-04-15T02:22:58.878Z,76.69
2023-04-15T02:28:00.792Z,77.10
2023-04-15T02:33:03.262Z,77.58
2023-04-15T02:38:05.094Z,78.10
2023-04-15T02:43:07.430Z,78.43
2023-04-15T02:48:09.857Z,78.97
2023-04-15T02:53:11.746Z,79.33
2023-04-15T02:58:13.649Z,79.75
2023-04-15T03:03:15.707Z,80.90
2023-04-15T03:08:17.561Z,81.84
2023-04-15T03:13:20.461Z,83.81
2023-04-15T03:18:23.598Z,84.46
2023-04-15T03:23:25.951Z,84.71
2023-04-15T03:28:29.634Z,85.83
2023-04-15T03:33:32.549Z,86.27
2023-04-15T03:38:34.374Z,86.53
2023-04-15T03:43:36.034Z,86.68
2023-04-15T03:48:37.674Z,86.61
2023-04-15T03:53:39.380Z,85.98
2023-04-15T03:58:41.062Z,85.97
2023-04-15T04:07:18.211Z,86.75
2023-04-15T04:12:20.045Z,87.32
2023-04-15T04:17:21.868Z,87.19
2023-04-15T04:22:24.640Z,86.97
2023-04-15T04:27:26.648Z,87.62
2023-04-15T04:32:28.319Z,89.19
2023-04-15T04:37:30.024Z,90.35
2023-04-15T04:42:31.774Z,89.80
2023-04-15T04:47:33.402Z,90.26
2023-04-15T04:52:35.242Z,90.40
2023-04-15T04:57:37.830Z,90.54
2023-04-15T05:02:39.918Z,90.40
2023-04-15T05:07:42.158Z,90.16
2023-04-15T05:12:44.403Z,90.30
2023-04-15T05:17:46.133Z,90.67
2023-04-15T05:22:47.966Z,90.53
2023-04-15T05:27:49.746Z,89.88
2023-04-15T05:32:51.913Z,89.46
2023-04-15T05:37:53.692Z,88.28
2023-04-15T05:42:55.522Z,87.77
2023-04-15T05:47:57.228Z,86.75
2023-04-15T05:52:59.130Z,86.36
2023-04-15T05:58:00.781Z,85.53
2023-04-15T06:03:02.582Z,83.87
2023-04-15T06:08:04.690Z,81.74
2023-04-15T06:13:06.984Z,81.50
2023-04-15T06:18:08.701Z,79.27
2023-04-15T06:23:10.434Z,77.69
2023-04-15T06:28:12.144Z,76.50
2023-04-15T06:33:14.052Z,75.62
2023-04-15T06:38:15.866Z,75.86
2023-04-15T06:43:17.476Z,73.61
2023-04-15T06:48:19.221Z,68.10
2023-04-15T06:53:21.532Z,66.74
2023-04-15T06:58:23.210Z,65.94
2023-04-15T07:03:24.953Z,64.63
2023-04-15T07:08:26.605Z,64.84
2023-04-15T07:13:30.986Z,61.95
2023-04-15T07:18:32.643Z,60.16
2023-04-15T07:23:34.545Z,57.51
2023-04-15T07:28:36.224Z,56.20
2023-04-15T07:33:37.899Z,55.89
2023-04-15T07:38:39.852Z,53.36
2023-04-15T07:43:41.552Z,54.78
2023-04-15T07:48:43.403Z,53.79
2023-04-15T07:53:45.345Z,53.33
2023-04-15T07:58:47.017Z,53.11
2023-04-15T08:03:52.969Z,51.69
2023-04-15T08:08:55.725Z,51.45
2023-04-15T08:13:57.673Z,51.54
2023-04-15T08:18:59.813Z,49.62
2023-04-15T08:24:01.918Z,48.98
2023-04-15T08:29:03.744Z,49.84
2023-04-15T08:34:05.771Z,47.36
2023-04-15T08:39:07.869Z,46.67
2023-04-15T08:44:10.297Z,46.08
2023-04-15T08:49:13.313Z,45.68
2023-04-15T08:54:15.052Z,45.18
2023-04-15T08:59:17.083Z,44.83
2023-04-15T09:04:19.082Z,45.14
2023-04-15T09:09:20.874Z,45.90
2023-04-15T09:14:23.257Z,43.95
2023-04-15T09:19:25.396Z,44.24
2023-04-15T09:24:37.405Z,43.03
2023-04-15T09:29:41.699Z,39.97
2023-04-15T09:34:43.548Z,37.01
2023-04-15T09:39:52.967Z,37.46
2023-04-15T09:44:55.098Z,41.17
2023-04-15T09:50:01.104Z,41.34
2023-04-15T09:55:02.965Z,41.12
2023-04-15T10:00:11.035Z,40.30
2023-04-15T10:05:15.832Z,36.86
2023-04-15T10:10:18.293Z,38.38
2023-04-15T10:15:21.599Z,39.57
2023-04-15T10:20:24.447Z,39.15
2023-04-15T10:25:26.952Z,39.09
2023-04-15T10:30:29.085Z,39.38
2023-04-15T10:35:32.909Z,40.90
2023-04-15T10:40:35.410Z,40.81
2023-04-15T10:45:37.851Z,37.55
2023-04-15T10:50:39.876Z,37.60
2023-04-15T10:55:41.597Z,37.83
2023-04-15T11:00:52.228Z,38.29
2023-04-15T11:05:54.349Z,40.00
2023-04-15T11:10:56.321Z,38.62
2023-04-15T11:15:59.192Z,38.33
2023-04-15T11:21:03.694Z,40.04
2023-04-15T11:26:11.650Z,40.83
2023-04-15T11:31:16.424Z,41.63
2023-04-15T11:36:18.400Z,41.60
2023-04-15T11:41:22.320Z,41.49
2023-04-15T11:46:30.971Z,42.20
2023-04-15T11:51:34.545Z,42.36
2023-04-15T11:56:36.458Z,42.57
2023-04-15T12:01:47.211Z,43.82
2023-04-15T12:06:48.935Z,43.93
2023-04-15T12:11:53.735Z,43.83
2023-04-15T12:16:59.908Z,43.44
2023-04-15T12:22:22.208Z,42.84
2023-04-15T12:27:29.265Z,41.17
2023-04-15T12:32:35.948Z,40.18
2023-04-15T12:37:37.709Z,40.09
2023-04-15T12:42:40.079Z,37.99
2023-04-15T12:47:41.852Z,38.13
2023-04-15T12:52:43.594Z,36.85
2023-04-15T12:57:46.993Z,34.73
2023-04-15T13:02:49.286Z,33.68
2023-04-15T13:07:51.241Z,33.80
2023-04-15T13:12:53.782Z,31.96
2023-04-15T13:17:55.955Z,31.77
2023-04-15T13:23:01.011Z,31.04
2023-04-15T13:28:03.162Z,32.25
2023-04-15T13:33:05.664Z,33.70
2023-04-15T13:38:07.395Z,34.72
2023-04-15T13:43:18.864Z,36.10
2023-04-15T13:48:20.761Z,37.77
2023-04-15T13:53:33.870Z,40.13
2023-04-15T13:58:41.382Z,41.20
2023-04-15T14:03:43.224Z,42.23
2023-04-15T14:08:45.460Z,44.63
2023-04-15T14:13:47.487Z,45.46
2023-04-15T14:18:49.209Z,48.24
2023-04-15T14:23:51.083Z,50.99
2023-04-15T14:28:52.758Z,53.02
2023-04-15T14:33:54.477Z,53.54
2023-04-15T14:38:56.213Z,54.01
2023-04-15T14:43:58.150Z,53.86
2023-04-15T14:48:59.821Z,53.64
2023-04-15T14:54:01.961Z,54.56
2023-04-15T14:59:03.797Z,55.70
2023-04-15T15:04:06.491Z,56.71
2023-04-15T15:09:08.582Z,57.42
2023-04-15T15:14:10.384Z,57.25
2023-04-15T15:19:12.140Z,57.42
2023-04-15T15:24:13.862Z,56.20
2023-04-15T15:29:15.657Z,57.31
2023-04-15T15:34:17.603Z,58.20
2023-04-15T15:39:19.299Z,58.69
2023-04-15T15:44:21.045Z,59.62
2023-04-15T15:49:22.836Z,60.46
2023-04-15T15:54:25.375Z,61.11
2023-04-15T15:59:27.136Z,61.32
2023-04-15T16:04:29.078Z,61.51
2023-04-15T16:09:31.767Z,63.95
2023-04-15T16:14:33.430Z,65.77
2023-04-15T16:19:35.165Z,68.47
2023-04-15T16:24:36.889Z,72.27
2023-04-15T16:29:38.611Z,73.80
2023-04-15T16:34:41.556Z,74.59
2023-04-15T16:39:43.330Z,76.13
2023-04-15T16:44:44.956Z,77.36
2023-04-15T16:49:47.665Z,78.48
2023-04-15T16:54:49.323Z,79.98
2023-04-15T16:59:51.780Z,80.14
2023-04-15T17:04:53.515Z,81.03
2023-04-15T17:09:55.331Z,82.89
2023-04-15T17:14:57.153Z,85.08
2023-04-15T17:19:58.963Z,85.78
2023-04-15T17:25:00.755Z,85.66
2023-04-15T17:30:02.624Z,87.06
2023-04-15T17:35:06.502Z,86.97
2023-04-15T17:40:09.087Z,87.53
2023-04-15T17:45:11.475Z,89.09
2023-04-15T17:50:13.194Z,89.54
2023-04-15T17:55:15.220Z,88.67
2023-04-15T18:00:17.237Z,88.65
2023-04-15T18:05:19.935Z,88.22
2023-04-15T18:10:21.964Z,87.81
2023-04-15T18:15:23.661Z,87.55
2023-04-15T18:20:25.699Z,87.39
2023-04-15T18:25:27.570Z,87.37
2023-04-15T18:30:29.362Z,87.34
2023-04-15T18:35:31.349Z,87.98
2023-04-15T18:40:33.001Z,89.83
2023-04-15T18:45:34.977Z,90.29
2023-04-15T18:50:37.160Z,91.32
2023-04-15T18:55:39.991Z,92.27
2023-04-15T19:00:43.813Z,92.99
2023-04-15T19:05:45.765Z,92.71
2023-04-15T19:10:47.699Z,91.15
2023-04-15T19:15:49.384Z,90.99
2023-04-15T19:20:52.968Z,91.21
2023-04-15T19:25:54.689Z,90.93
2023-04-15T19:30:58.018Z,91.12
2023-04-15T19:36:05.564Z,91.39
2023-04-15T19:41:09.144Z,91.87
2023-04-15T19:46:13.343Z,92.28
2023-04-15T19:51:17.897Z,92.76
2023-04-15T19:56:20.701Z,92.34
2023-04-15T20:01:23.163Z,91.77
2023-04-15T20:06:25.086Z,91.69
2023-04-15T20:12:06.100Z,91.20
2023-04-15T20:16:51.119Z,90.62
2023-04-15T20:21:54.083Z,90.50
2023-04-15T20:26:57.543Z,91.14
2023-04-15T20:31:59.266Z,91.00
2023-04-15T20:37:01.534Z,91.20
2023-04-15T20:42:03.469Z,91.23
2023-04-15T20:47:06.371Z,91.06
2023-04-15T20:52:08.979Z,91.00
2023-04-15T20:57:10.652Z,90.44
2023-04-15T21:02:12.493Z,89.92
2023-04-15T21:07:14.836Z,90.61
2023-04-15T21:12:16.730Z,90.81
2023-04-15T21:17:19.615Z,90.61
2023-04-15T21:22:21.517Z,91.02
2023-04-15T21:27:23.233Z,91.20
2023-04-15T21:32:26.303Z,90.91
2023-04-15T21:37:27.922Z,91.43
2023-04-15T21:42:30.217Z,92.38
2023-04-15T21:48:00.892Z,92.34
2023-04-15T21:53:08.130Z,92.03
2023-04-15T21:58:09.870Z,91.91
2023-04-15T22:03:12.127Z,91.37
2023-04-15T22:08:14.163Z,91.31
2023-04-15T22:13:16.858Z,92.06
2023-04-15T22:18:18.525Z,92.07
2023-04-15T22:23:20.841Z,92.54
2023-04-15T22:28:22.536Z,92.81
2023-04-15T22:33:24.333Z,93.48
2023-04-15T22:38:26.043Z,94.32
2023-04-15T22:43:27.917Z,95.17
2023-04-15T22:48:29.651Z,95.89
2023-04-15T22:53:31.489Z,96.39
2023-04-15T22:58:33.219Z,97.20
2023-04-15T23:03:35.072Z,98.25
2023-04-15T23:08:59.188Z,95.50
2023-04-15T23:14:29.103Z,93.80
2023-04-15T23:19:30.837Z,94.49
2023-04-15T23:24:32.686Z,94.68
2023-04-15T23:29:34.400Z,95.38
2023-04-15T23:34:37.617Z,95.95
2023-04-15T23:39:42.189Z,94.90
2023-04-15T23:44:44.945Z,96.25
2023-04-15T23:49:52.772Z,95.72
2023-04-15T23:54:54.526Z,93.30
2023-04-15T23:59:56.572Z,93.09
